createdAt,value
2018-06-16T00:01:26.430Z,8.90
2018-06-16T00:03:29.906Z,8.87
2018-06-16T00:05:33.434Z,9.70
2018-06-16T00:07:37.002Z,8.83
2018-06-16T00:09:40.527Z,8.93
2018-06-16T00:11:43.964Z,8.63
2018-06-16T00:13:47.559Z,8.40
2018-06-16T00:15:51.076Z,9.10
2018-06-16T00:17:54.583Z,9.20
2018-06-16T00:19:58.070Z,9.43
2018-06-16T00:22:01.579Z,9.37
2018-06-16T00:24:05.146Z,9.47
2018-06-16T00:26:08.665Z,9.43
2018-06-16T00:28:12.151Z,8.20
2018-06-16T00:30:15.664Z,8.57
2018-06-16T00:32:19.177Z,8.83
2018-06-16T00:34:22.686Z,8.50
2018-06-16T00:36:26.187Z,8.83
2018-06-16T00:38:29.706Z,9.33
2018-06-16T00:40:33.236Z,9.17
2018-06-16T00:42:36.760Z,8.97
2018-06-16T00:44:40.312Z,9.33
2018-06-16T00:46:43.827Z,9.30
2018-06-16T00:48:47.397Z,9.87
2018-06-16T00:50:50.920Z,10.30
2018-06-16T00:52:54.485Z,9.80
2018-06-16T00:54:58.247Z,9.03
2018-06-16T00:57:13.046Z,9.03
2018-06-16T00:59:16.588Z,9.27
2018-06-16T01:01:20.136Z,9.33
2018-06-16T01:03:23.626Z,8.60
2018-06-16T01:05:27.182Z,9.30
2018-06-16T01:07:30.726Z,9.40
2018-06-16T01:09:34.256Z,9.13
2018-06-16T01:11:37.779Z,9.23
2018-06-16T01:13:41.379Z,8.37
2018-06-16T01:15:44.871Z,9.13
2018-06-16T01:17:48.406Z,9.50
2018-06-16T01:19:51.951Z,10.03
2018-06-16T01:21:55.495Z,9.17
2018-06-16T01:23:59.017Z,9.53
2018-06-16T01:26:02.557Z,9.33
2018-06-16T01:28:06.119Z,9.37
2018-06-16T01:30:09.678Z,9.60
2018-06-16T01:32:13.242Z,9.40
2018-06-16T01:34:16.790Z,9.10
2018-06-16T01:36:20.343Z,9.87
2018-06-16T01:38:23.898Z,10.37
2018-06-16T01:40:27.446Z,9.30
2018-06-16T01:42:30.987Z,9.93
2018-06-16T01:44:34.511Z,10.37
2018-06-16T01:46:37.999Z,10.17
2018-06-16T01:48:41.493Z,9.87
2018-06-16T01:50:45.071Z,9.97
2018-06-16T01:52:48.635Z,9.43
2018-06-16T01:54:52.655Z,9.53
2018-06-16T01:56:56.140Z,10.13
2018-06-16T01:58:59.632Z,10.17
2018-06-16T02:01:03.162Z,10.33
2018-06-16T02:03:06.677Z,9.83
2018-06-16T02:05:10.211Z,8.13
2018-06-16T02:07:13.688Z,9.93
2018-06-16T02:09:17.179Z,10.57
2018-06-16T02:11:20.696Z,9.47
2018-06-16T02:13:24.200Z,10.37
2018-06-16T02:15:27.753Z,10.67
2018-06-16T02:17:31.271Z,9.80
2018-06-16T02:19:34.778Z,10.33
2018-06-16T02:21:38.291Z,9.80
2018-06-16T02:23:41.849Z,10.17
2018-06-16T02:25:45.360Z,10.17
2018-06-16T02:27:48.882Z,10.17
2018-06-16T02:29:52.390Z,9.90
2018-06-16T02:31:55.978Z,9.90
2018-06-16T02:33:59.551Z,10.63
2018-06-16T02:36:03.093Z,10.73
2018-06-16T02:38:06.705Z,9.97
2018-06-16T02:40:10.297Z,10.57
2018-06-16T02:42:13.853Z,10.70
2018-06-16T02:44:17.336Z,10.33
2018-06-16T02:46:20.889Z,10.60
2018-06-16T02:48:24.360Z,10.43
2018-06-16T02:50:28.021Z,10.87
2018-06-16T02:52:31.559Z,10.07
2018-06-16T02:54:35.088Z,10.13
2018-06-16T02:56:38.656Z,10.40
2018-06-16T02:58:42.235Z,10.40
2018-06-16T03:00:45.773Z,14.27
2018-06-16T03:02:49.294Z,12.53
2018-06-16T03:04:52.785Z,11.50
2018-06-16T03:06:56.352Z,12.40
2018-06-16T03:08:59.838Z,11.70
2018-06-16T03:11:03.388Z,10.80
2018-06-16T03:13:06.939Z,12.60
2018-06-16T03:15:10.554Z,13.80
2018-06-16T03:17:14.459Z,13.60
2018-06-16T03:19:17.975Z,12.80
2018-06-16T03:21:21.586Z,11.83
2018-06-16T03:23:25.136Z,11.93
2018-06-16T03:25:28.833Z,11.30
2018-06-16T03:27:32.400Z,11.63
2018-06-16T03:29:35.882Z,11.03
2018-06-16T03:31:39.458Z,10.47
2018-06-16T03:33:43.015Z,10.73
2018-06-16T03:35:46.923Z,11.67
2018-06-16T03:37:50.522Z,10.93
2018-06-16T03:39:54.078Z,11.47
2018-06-16T03:41:57.620Z,10.50
2018-06-16T03:44:01.183Z,10.60
2018-06-16T03:46:04.781Z,12.13
2018-06-16T03:48:08.317Z,11.93
2018-06-16T03:50:11.936Z,10.73
2018-06-16T03:52:15.415Z,10.63
2018-06-16T03:54:18.955Z,10.57
2018-06-16T03:56:22.488Z,11.37
2018-06-16T03:58:26.031Z,11.70
2018-06-16T04:00:29.556Z,11.93
2018-06-16T04:02:33.089Z,9.43
2018-06-16T04:04:36.613Z,11.10
2018-06-16T04:06:40.187Z,10.80
2018-06-16T04:08:43.703Z,11.30
2018-06-16T04:10:47.196Z,10.83
2018-06-16T04:12:50.728Z,11.40
2018-06-16T04:14:54.186Z,10.00
2018-06-16T04:16:57.753Z,10.83
2018-06-16T04:19:01.291Z,10.40
2018-06-16T04:21:04.840Z,10.67
2018-06-16T04:23:08.398Z,10.13
2018-06-16T04:25:11.928Z,10.73
2018-06-16T04:27:15.471Z,9.73
2018-06-16T04:29:18.959Z,9.97
2018-06-16T04:31:22.493Z,10.67
2018-06-16T04:33:26.071Z,10.47
2018-06-16T04:35:29.664Z,10.60
2018-06-16T04:37:33.212Z,10.77
2018-06-16T04:39:36.718Z,10.57
2018-06-16T04:41:40.309Z,9.80
2018-06-16T04:43:43.837Z,10.23
2018-06-16T04:45:47.436Z,11.00
2018-06-16T04:47:51.103Z,9.83
2018-06-16T04:49:54.627Z,9.57
2018-06-16T04:51:59.962Z,10.20
2018-06-16T04:54:03.575Z,11.10
2018-06-16T04:56:07.090Z,10.40
2018-06-16T04:58:10.656Z,10.83
2018-06-16T05:00:14.150Z,10.77
2018-06-16T05:02:17.649Z,11.00
2018-06-16T05:04:21.178Z,10.57
2018-06-16T05:06:24.667Z,11.00
2018-06-16T05:08:28.208Z,10.73
2018-06-16T05:10:31.732Z,10.03
2018-06-16T05:12:35.240Z,10.33
2018-06-16T05:14:38.725Z,10.90
2018-06-16T05:16:42.234Z,10.17
2018-06-16T05:18:45.776Z,9.97
2018-06-16T05:20:49.242Z,9.83
2018-06-16T05:22:52.735Z,9.23
2018-06-16T05:24:56.231Z,9.60
2018-06-16T05:26:59.733Z,9.23
2018-06-16T05:29:03.321Z,9.40
2018-06-16T05:31:06.816Z,9.90
2018-06-16T05:33:10.372Z,9.90
2018-06-16T05:35:13.864Z,9.87
2018-06-16T05:37:17.394Z,9.83
2018-06-16T05:39:20.879Z,9.80
2018-06-16T05:41:24.400Z,9.90
2018-06-16T05:43:27.987Z,10.00
2018-06-16T05:45:31.563Z,9.50
2018-06-16T05:47:35.538Z,10.43
2018-06-16T05:49:39.073Z,10.93
2018-06-16T05:51:42.602Z,10.27
2018-06-16T05:53:46.192Z,10.53
2018-06-16T05:55:49.712Z,10.37
2018-06-16T05:57:53.276Z,10.00
2018-06-16T05:59:56.788Z,10.93
2018-06-16T06:02:00.318Z,9.93
2018-06-16T06:04:04.226Z,9.77
2018-06-16T06:06:07.700Z,9.73
2018-06-16T06:08:11.249Z,9.67
2018-06-16T06:10:14.830Z,9.47
2018-06-16T06:12:18.411Z,10.63
2018-06-16T06:14:22.016Z,9.67
2018-06-16T06:16:25.540Z,9.57
2018-06-16T06:18:29.066Z,9.80
2018-06-16T06:20:32.661Z,9.60
2018-06-16T06:22:36.177Z,9.37
2018-06-16T06:24:39.701Z,9.60
2018-06-16T06:26:43.210Z,9.27
2018-06-16T06:28:46.740Z,8.90
2018-06-16T06:30:50.999Z,9.47
2018-06-16T06:32:54.467Z,9.60
2018-06-16T06:34:57.990Z,9.97
2018-06-16T06:37:01.517Z,9.33
2018-06-16T06:39:07.037Z,9.77
2018-06-16T06:41:10.580Z,9.20
2018-06-16T06:43:14.103Z,9.90
2018-06-16T06:45:17.611Z,9.80
2018-06-16T06:47:21.164Z,10.10
2018-06-16T06:49:24.707Z,9.13
2018-06-16T06:51:28.702Z,10.20
2018-06-16T06:53:32.235Z,9.27
2018-06-16T06:55:35.702Z,8.73
2018-06-16T06:57:39.725Z,10.20
2018-06-16T06:59:43.405Z,9.13
2018-06-16T07:01:46.896Z,9.60
2018-06-16T07:03:50.389Z,10.07
2018-06-16T07:05:53.920Z,9.60
2018-06-16T07:07:57.399Z,9.13
2018-06-16T07:10:01.063Z,9.30
2018-06-16T07:12:04.566Z,8.47
2018-06-16T07:14:08.400Z,9.00
2018-06-16T07:16:12.284Z,9.00
2018-06-16T07:18:15.739Z,8.73
2018-06-16T07:20:19.241Z,8.60
2018-06-16T07:22:22.771Z,7.90
2018-06-16T07:24:26.304Z,8.03
2018-06-16T07:26:29.886Z,7.77
2018-06-16T07:28:33.404Z,7.33
2018-06-16T07:30:36.908Z,7.47
2018-06-16T07:32:40.519Z,7.47
2018-06-16T07:34:44.049Z,7.67
2018-06-16T07:36:47.547Z,7.37
2018-06-16T07:38:51.082Z,7.33
2018-06-16T07:40:54.564Z,6.83
2018-06-16T07:42:58.032Z,6.97
2018-06-16T07:45:01.567Z,7.27
2018-06-16T07:47:05.131Z,7.27
2018-06-16T07:49:08.631Z,7.10
2018-06-16T07:51:12.136Z,7.17
2018-06-16T07:53:15.684Z,7.27
2018-06-16T07:55:19.198Z,7.40
2018-06-16T07:57:22.731Z,7.10
2018-06-16T07:59:26.217Z,6.80
2018-06-16T08:01:29.711Z,5.97
2018-06-16T08:03:33.243Z,6.97
2018-06-16T08:05:36.784Z,6.37
2018-06-16T08:07:40.318Z,6.50
2018-06-16T08:09:43.853Z,6.60
2018-06-16T08:11:47.353Z,7.20
2018-06-16T08:13:50.864Z,6.60
2018-06-16T08:15:54.356Z,6.63
2018-06-16T08:17:57.926Z,7.03
2018-06-16T08:20:01.583Z,6.70
2018-06-16T08:22:05.071Z,6.40
2018-06-16T08:24:08.604Z,7.40
2018-06-16T08:26:12.208Z,7.27
2018-06-16T08:28:15.714Z,6.90
2018-06-16T08:30:19.227Z,7.27
2018-06-16T08:32:22.690Z,7.17
2018-06-16T08:34:26.221Z,6.93
2018-06-16T08:36:29.727Z,6.63
2018-06-16T08:38:33.262Z,6.53
2018-06-16T08:40:36.825Z,5.67
2018-06-16T08:42:40.609Z,6.30
2018-06-16T08:44:44.161Z,6.60
2018-06-16T08:46:47.651Z,6.50
2018-06-16T08:48:51.131Z,6.20
2018-06-16T08:50:54.638Z,6.33
2018-06-16T08:52:58.138Z,6.93
2018-06-16T08:55:01.696Z,6.43
2018-06-16T08:57:05.267Z,5.73
2018-06-16T08:59:08.808Z,6.90
2018-06-16T09:01:12.320Z,5.73
2018-06-16T09:03:15.767Z,6.27
2018-06-16T09:05:19.305Z,6.23
2018-06-16T09:07:22.847Z,5.90
2018-06-16T09:09:26.391Z,5.00
2018-06-16T09:11:29.962Z,5.80
2018-06-16T09:13:33.640Z,6.10
2018-06-16T09:15:37.347Z,5.33
2018-06-16T09:17:40.905Z,5.90
2018-06-16T09:19:44.396Z,6.23
2018-06-16T09:21:48.025Z,5.60
2018-06-16T09:23:51.638Z,5.87
2018-06-16T09:25:55.164Z,6.53
2018-06-16T09:27:58.661Z,7.17
2018-06-16T09:30:02.351Z,6.80
2018-06-16T09:32:05.915Z,6.63
2018-06-16T09:34:09.914Z,7.40
2018-06-16T09:36:20.128Z,6.33
2018-06-16T09:38:23.784Z,6.37
2018-06-16T09:40:27.335Z,6.03
2018-06-16T09:42:30.842Z,7.23
2018-06-16T09:44:34.324Z,6.63
2018-06-16T09:46:37.849Z,6.17
2018-06-16T09:48:41.314Z,5.90
2018-06-16T09:50:44.853Z,6.03
2018-06-16T09:52:48.383Z,5.97
2018-06-16T09:54:51.930Z,6.17
2018-06-16T09:56:55.526Z,5.93
2018-06-16T09:58:59.042Z,5.60
2018-06-16T10:01:02.545Z,5.03
2018-06-16T10:03:06.044Z,5.30
2018-06-16T10:05:09.565Z,5.00
2018-06-16T10:07:13.120Z,5.30
2018-06-16T10:09:16.620Z,5.67
2018-06-16T10:11:20.153Z,5.67
2018-06-16T10:13:23.648Z,5.70
2018-06-16T10:15:27.143Z,5.30
2018-06-16T10:17:30.660Z,5.03
2018-06-16T10:19:34.203Z,4.80
2018-06-16T10:21:37.737Z,4.30
2018-06-16T10:23:41.252Z,4.20
2018-06-16T10:25:44.827Z,4.87
2018-06-16T10:27:48.385Z,4.57
2018-06-16T10:29:52.161Z,4.67
2018-06-16T10:31:55.678Z,5.30
2018-06-16T10:33:59.197Z,4.90
2018-06-16T10:36:02.695Z,4.80
2018-06-16T10:38:06.246Z,5.13
2018-06-16T10:40:09.836Z,4.67
2018-06-16T10:42:13.392Z,5.27
2018-06-16T10:44:16.918Z,4.97
2018-06-16T10:46:20.721Z,4.80
2018-06-16T10:48:24.381Z,4.80
2018-06-16T10:50:27.880Z,4.53
2018-06-16T10:52:31.621Z,4.23
2018-06-16T10:54:35.083Z,4.20
2018-06-16T10:56:38.605Z,4.70
2018-06-16T10:58:42.135Z,4.10
2018-06-16T11:00:45.563Z,3.53
2018-06-16T11:02:49.332Z,3.87
2018-06-16T11:04:52.799Z,3.70
2018-06-16T11:06:56.320Z,4.53
2018-06-16T11:08:59.818Z,4.00
2018-06-16T11:11:03.335Z,3.90
2018-06-16T11:13:06.852Z,3.73
2018-06-16T11:15:10.381Z,3.30
2018-06-16T11:17:13.910Z,3.50
2018-06-16T11:19:17.417Z,3.87
2018-06-16T11:21:20.985Z,3.10
2018-06-16T11:23:24.455Z,3.53
2018-06-16T11:25:28.039Z,3.60
2018-06-16T11:27:31.517Z,3.43
2018-06-16T11:29:35.083Z,3.63
2018-06-16T11:31:38.628Z,4.13
2018-06-16T11:33:42.343Z,3.77
2018-06-16T11:35:45.861Z,3.90
2018-06-16T11:37:49.373Z,3.60
2018-06-16T11:39:52.875Z,4.00
2018-06-16T11:41:56.373Z,3.60
2018-06-16T11:43:59.948Z,4.03
2018-06-16T11:46:03.454Z,3.70
2018-06-16T11:48:06.976Z,3.77
2018-06-16T11:50:10.512Z,3.77
2018-06-16T11:52:14.037Z,3.90
2018-06-16T11:54:17.604Z,3.27
2018-06-16T11:56:21.159Z,3.13
2018-06-16T11:58:24.694Z,3.43
2018-06-16T12:00:28.215Z,2.80
2018-06-16T12:02:32.092Z,3.60
2018-06-16T12:04:36.036Z,2.93
2018-06-16T12:06:39.555Z,3.00
2018-06-16T12:08:43.148Z,3.30
2018-06-16T12:10:46.664Z,3.60
2018-06-16T12:12:50.228Z,3.30
2018-06-16T12:14:53.775Z,3.20
2018-06-16T12:16:57.318Z,3.10
2018-06-16T12:19:00.920Z,2.70
2018-06-16T12:21:04.532Z,3.23
2018-06-16T12:23:11.076Z,3.00
2018-06-16T12:25:14.669Z,3.17
2018-06-16T12:27:18.310Z,3.50
2018-06-16T12:29:21.862Z,3.40
2018-06-16T12:31:25.567Z,3.07
2018-06-16T12:33:29.104Z,2.87
2018-06-16T12:35:32.628Z,3.20
2018-06-16T12:37:36.135Z,2.57
2018-06-16T12:39:39.954Z,3.00
2018-06-16T12:41:45.180Z,2.80
2018-06-16T12:43:58.626Z,2.70
2018-06-16T12:46:02.227Z,2.90
2018-06-16T12:48:05.749Z,3.07
2018-06-16T12:50:09.277Z,2.87
2018-06-16T12:52:12.742Z,2.80
2018-06-16T12:54:16.300Z,3.10
2018-06-16T12:56:19.803Z,2.70
2018-06-16T12:58:23.303Z,2.60
2018-06-16T13:00:26.928Z,2.63
2018-06-16T13:02:30.442Z,2.70
2018-06-16T13:04:33.967Z,2.63
2018-06-16T13:06:37.492Z,3.00
2018-06-16T13:08:41.049Z,2.97
2018-06-16T13:10:44.559Z,3.03
2018-06-16T13:12:48.055Z,2.70
2018-06-16T13:14:51.579Z,2.60
2018-06-16T13:16:55.104Z,2.60
2018-06-16T13:18:58.973Z,2.50
2018-06-16T13:21:02.513Z,2.50
2018-06-16T13:23:06.407Z,2.50
2018-06-16T13:25:09.948Z,2.77
2018-06-16T13:27:13.429Z,2.47
2018-06-16T13:29:17.103Z,2.70
2018-06-16T13:31:20.760Z,3.17
2018-06-16T13:33:24.273Z,2.83
2018-06-16T13:35:27.821Z,2.67
2018-06-16T13:37:31.384Z,2.50
2018-06-16T13:39:34.918Z,2.87
2018-06-16T13:41:38.938Z,2.90
2018-06-16T13:43:42.529Z,3.20
2018-06-16T13:45:46.433Z,3.07
2018-06-16T13:47:49.991Z,3.20
2018-06-16T13:49:53.515Z,3.10
2018-06-16T13:51:56.997Z,2.40
2018-06-16T13:54:00.516Z,2.60
2018-06-16T13:56:04.574Z,3.27
2018-06-16T13:58:08.066Z,2.70
2018-06-16T14:00:11.577Z,2.87
2018-06-16T14:02:15.060Z,3.23
2018-06-16T14:04:18.639Z,3.07
2018-06-16T14:06:22.521Z,2.80
2018-06-16T14:08:26.009Z,3.07
2018-06-16T14:10:29.941Z,2.90
2018-06-16T14:12:33.439Z,3.27
2018-06-16T14:14:36.998Z,3.60
2018-06-16T14:16:40.544Z,3.20
2018-06-16T14:18:44.236Z,3.40
2018-06-16T14:20:47.844Z,2.90
2018-06-16T14:22:51.330Z,3.20
2018-06-16T14:24:54.936Z,2.83
2018-06-16T14:26:58.481Z,2.70
2018-06-16T14:29:01.970Z,2.93
2018-06-16T14:31:05.524Z,2.70
2018-06-16T14:33:09.096Z,2.87
2018-06-16T14:35:12.666Z,2.70
2018-06-16T14:37:16.223Z,2.00
2018-06-16T14:39:19.748Z,2.27
2018-06-16T14:41:23.500Z,2.40
2018-06-16T14:43:27.005Z,2.20
2018-06-16T14:45:30.560Z,2.33
2018-06-16T14:47:34.103Z,2.20
2018-06-16T14:49:37.651Z,1.97
2018-06-16T14:51:41.171Z,1.90
2018-06-16T14:53:44.767Z,1.90
2018-06-16T14:55:48.324Z,2.13
2018-06-16T14:57:51.788Z,2.00
2018-06-16T14:59:55.314Z,2.17
2018-06-16T15:01:58.738Z,1.90
2018-06-16T15:04:02.334Z,2.27
2018-06-16T15:06:06.209Z,2.30
2018-06-16T15:08:09.704Z,2.30
2018-06-16T15:10:13.347Z,2.20
2018-06-16T15:12:16.912Z,2.43
2018-06-16T15:14:20.457Z,2.20
2018-06-16T15:16:24.027Z,2.00
2018-06-16T15:18:27.538Z,1.93
2018-06-16T15:20:31.131Z,1.90
2018-06-16T15:22:34.628Z,2.00
2018-06-16T15:24:38.116Z,2.07
2018-06-16T15:26:41.697Z,1.80
2018-06-16T15:28:45.201Z,2.03
2018-06-16T15:30:48.812Z,2.03
2018-06-16T15:32:52.318Z,2.00
2018-06-16T15:34:55.865Z,2.10
2018-06-16T15:36:59.923Z,2.10
2018-06-16T15:39:05.177Z,1.80
2018-06-16T15:41:08.898Z,1.90
2018-06-16T15:43:13.023Z,2.07
2018-06-16T15:45:16.856Z,2.20
2018-06-16T15:47:20.633Z,1.87
2018-06-16T15:49:24.549Z,2.00
2018-06-16T15:51:28.394Z,1.73
2018-06-16T15:53:32.311Z,1.93
2018-06-16T15:55:36.193Z,2.27
2018-06-16T15:57:39.806Z,1.83
2018-06-16T15:59:43.773Z,2.00
2018-06-16T16:01:47.513Z,2.17
2018-06-16T16:03:51.068Z,2.13
2018-06-16T16:05:54.571Z,2.03
2018-06-16T16:07:58.079Z,1.90
2018-06-16T16:10:01.596Z,2.37
2018-06-16T16:12:05.113Z,2.30
2018-06-16T16:14:09.048Z,1.90
2018-06-16T16:16:12.558Z,1.90
2018-06-16T16:18:16.052Z,2.20
2018-06-16T16:20:19.531Z,2.20
2018-06-16T16:22:23.008Z,2.03
2018-06-16T16:24:26.444Z,2.00
2018-06-16T16:26:30.003Z,2.23
2018-06-16T16:28:33.470Z,2.03
2018-06-16T16:30:37.031Z,2.20
2018-06-16T16:32:40.536Z,2.00
2018-06-16T16:34:44.063Z,1.90
2018-06-16T16:36:47.616Z,1.80
2018-06-16T16:38:51.343Z,1.90
2018-06-16T16:40:54.857Z,2.00
2018-06-16T16:42:58.380Z,2.20
2018-06-16T16:45:01.936Z,2.13
2018-06-16T16:47:05.456Z,2.20
2018-06-16T16:49:09.319Z,2.37
2018-06-16T16:51:13.220Z,1.80
2018-06-16T16:53:16.764Z,2.17
2018-06-16T16:55:20.270Z,2.20
2018-06-16T16:57:23.777Z,2.00
2018-06-16T16:59:27.313Z,2.13
2018-06-16T17:01:30.860Z,2.17
2018-06-16T17:03:34.370Z,2.17
2018-06-16T17:05:37.876Z,2.23
2018-06-16T17:07:41.349Z,2.50
2018-06-16T17:09:44.900Z,2.27
2018-06-16T17:11:48.446Z,2.23
2018-06-16T17:13:51.932Z,2.10
2018-06-16T17:15:55.447Z,2.73
2018-06-16T17:17:58.945Z,2.30
2018-06-16T17:20:02.453Z,2.50
2018-06-16T17:22:06.074Z,2.30
2018-06-16T17:24:09.594Z,2.10
2018-06-16T17:26:13.120Z,2.43
2018-06-16T17:28:16.608Z,2.20
2018-06-16T17:30:20.092Z,2.07
2018-06-16T17:32:23.610Z,2.20
2018-06-16T17:34:27.143Z,2.10
2018-06-16T17:36:30.682Z,2.07
2018-06-16T17:38:34.227Z,2.07
2018-06-16T17:40:37.720Z,2.30
2018-06-16T17:42:41.220Z,2.37
2018-06-16T17:44:44.751Z,2.10
2018-06-16T17:46:48.243Z,2.60
2018-06-16T17:48:51.793Z,2.30
2018-06-16T17:50:55.426Z,2.40
2018-06-16T17:52:58.903Z,2.37
2018-06-16T17:55:02.393Z,2.37
2018-06-16T17:57:06.360Z,2.13
2018-06-16T17:59:09.856Z,2.37
2018-06-16T18:01:13.492Z,2.40
2018-06-16T18:03:17.045Z,2.73
2018-06-16T18:05:20.588Z,2.40
2018-06-16T18:07:24.112Z,2.27
2018-06-16T18:09:27.677Z,2.40
2018-06-16T18:11:31.257Z,2.60
2018-06-16T18:13:34.791Z,2.60
2018-06-16T18:15:38.330Z,2.20
2018-06-16T18:17:42.054Z,2.67
2018-06-16T18:19:45.592Z,2.47
2018-06-16T18:21:49.125Z,2.40
2018-06-16T18:23:52.619Z,2.50
2018-06-16T18:25:56.148Z,2.53
2018-06-16T18:27:59.683Z,2.77
2018-06-16T18:30:03.266Z,2.50
2018-06-16T18:32:06.848Z,2.50
2018-06-16T18:34:10.364Z,2.40
2018-06-16T18:36:13.910Z,2.50
2018-06-16T18:38:17.527Z,2.70
2018-06-16T18:40:21.092Z,2.90
2018-06-16T18:42:24.588Z,2.40
2018-06-16T18:44:28.168Z,2.60
2018-06-16T18:46:31.679Z,2.40
2018-06-16T18:48:35.313Z,2.43
2018-06-16T18:50:38.871Z,2.70
2018-06-16T18:52:42.351Z,2.70
2018-06-16T18:54:46.339Z,2.83
2018-06-16T18:56:49.908Z,2.63
2018-06-16T18:58:53.471Z,2.77
2018-06-16T19:00:56.980Z,3.00
2018-06-16T19:03:00.576Z,3.03
2018-06-16T19:05:04.157Z,2.97
2018-06-16T19:07:07.643Z,2.80
2018-06-16T19:09:11.158Z,3.00
2018-06-16T19:11:14.687Z,3.23
2018-06-16T19:13:18.255Z,3.03
2018-06-16T19:15:21.781Z,3.20
2018-06-16T19:17:25.324Z,2.63
2018-06-16T19:19:28.890Z,3.47
2018-06-16T19:21:32.798Z,2.73
2018-06-16T19:23:36.683Z,2.70
2018-06-16T19:25:40.218Z,2.77
2018-06-16T19:27:43.722Z,2.50
2018-06-16T19:29:47.256Z,2.67
2018-06-16T19:31:50.759Z,2.40
2018-06-16T19:33:54.340Z,2.60
2018-06-16T19:35:57.875Z,2.67
2018-06-16T19:38:01.814Z,3.17
2018-06-16T19:40:05.384Z,3.53
2018-06-16T19:42:08.905Z,2.67
2018-06-16T19:44:12.465Z,3.37
2018-06-16T19:46:15.959Z,2.83
2018-06-16T19:48:19.489Z,2.83
2018-06-16T19:50:22.991Z,2.90
2018-06-16T19:52:26.489Z,3.07
2018-06-16T19:54:30.080Z,3.10
2018-06-16T19:56:33.568Z,2.83
2018-06-16T19:58:37.134Z,3.40
2018-06-16T20:00:40.733Z,3.13
2018-06-16T20:02:44.226Z,3.20
2018-06-16T20:04:47.861Z,3.10
2018-06-16T20:06:51.661Z,3.03
2018-06-16T20:08:55.116Z,3.57
2018-06-16T20:10:58.669Z,2.97
2018-06-16T20:13:02.203Z,3.00
2018-06-16T20:15:05.821Z,3.37
2018-06-16T20:17:09.360Z,3.27
2018-06-16T20:19:12.865Z,3.20
2018-06-16T20:21:16.342Z,3.07
2018-06-16T20:23:19.927Z,2.90
2018-06-16T20:25:23.490Z,3.43
2018-06-16T20:27:27.073Z,3.80
2018-06-16T20:29:31.111Z,3.67
2018-06-16T20:31:34.836Z,3.50
2018-06-16T20:33:38.440Z,3.40
2018-06-16T20:35:42.036Z,3.67
2018-06-16T20:37:45.640Z,3.30
2018-06-16T20:39:49.592Z,3.93
2018-06-16T20:41:53.308Z,3.37
2018-06-16T20:43:56.821Z,3.67
2018-06-16T20:46:00.336Z,3.50
2018-06-16T20:48:04.220Z,3.73
2018-06-16T20:50:08.382Z,3.80
2018-06-16T20:52:12.070Z,4.07
2018-06-16T20:54:15.633Z,3.70
2018-06-16T20:56:19.229Z,3.57
2018-06-16T20:58:22.719Z,3.77
2018-06-16T21:00:26.234Z,3.73
2018-06-16T21:02:29.790Z,3.57
2018-06-16T21:04:33.329Z,3.47
2018-06-16T21:06:36.900Z,3.50
2018-06-16T21:08:40.442Z,3.50
2018-06-16T21:10:43.988Z,3.97
2018-06-16T21:12:47.535Z,3.27
2018-06-16T21:14:51.072Z,4.00
2018-06-16T21:16:54.579Z,3.27
2018-06-16T21:18:58.143Z,3.43
2018-06-16T21:21:01.677Z,3.57
2018-06-16T21:23:05.191Z,3.57
2018-06-16T21:25:08.712Z,3.20
2018-06-16T21:27:12.271Z,3.63
2018-06-16T21:29:15.834Z,3.63
2018-06-16T21:31:19.505Z,3.77
2018-06-16T21:33:23.061Z,3.20
2018-06-16T21:35:26.585Z,3.47
2018-06-16T21:37:30.274Z,3.20
2018-06-16T21:39:33.818Z,3.53
2018-06-16T21:41:37.679Z,3.87
2018-06-16T21:43:41.225Z,3.23
2018-06-16T21:45:44.680Z,3.43
2018-06-16T21:47:49.168Z,3.67
2018-06-16T21:49:52.734Z,3.23
2018-06-16T21:51:56.252Z,3.20
2018-06-16T21:54:00.455Z,3.30
2018-06-16T21:56:04.391Z,3.60
2018-06-16T21:58:07.973Z,3.20
2018-06-16T22:00:13.494Z,3.83
2018-06-16T22:02:17.071Z,3.27
2018-06-16T22:04:20.672Z,3.40
2018-06-16T22:06:24.213Z,3.20
2018-06-16T22:08:32.250Z,3.40
2018-06-16T22:10:35.929Z,3.30
2018-06-16T22:12:39.505Z,3.40
2018-06-16T22:14:43.096Z,3.23
2018-06-16T22:16:46.690Z,3.40
2018-06-16T22:18:50.424Z,3.53
2018-06-16T22:20:54.545Z,3.40
2018-06-16T22:22:58.060Z,3.67
2018-06-16T22:25:01.596Z,3.20
2018-06-16T22:27:05.080Z,3.40
2018-06-16T22:29:08.607Z,3.13
2018-06-16T22:31:12.154Z,3.40
2018-06-16T22:33:15.668Z,3.20
2018-06-16T22:35:19.190Z,3.40
2018-06-16T22:37:22.778Z,3.87
2018-06-16T22:39:26.280Z,3.20
2018-06-16T22:41:29.857Z,3.60
2018-06-16T22:43:33.423Z,3.57
2018-06-16T22:45:37.122Z,3.87
2018-06-16T22:47:40.705Z,3.30
2018-06-16T22:49:44.224Z,3.40
2018-06-16T22:51:47.754Z,3.30
2018-06-16T22:53:51.264Z,3.77
2018-06-16T22:55:54.781Z,3.60
2018-06-16T22:57:58.338Z,4.20
2018-06-16T23:00:01.943Z,4.23
2018-06-16T23:02:05.500Z,3.47
2018-06-16T23:04:09.051Z,3.93
2018-06-16T23:06:12.546Z,3.33
2018-06-16T23:08:16.114Z,3.67
2018-06-16T23:10:19.676Z,3.60
2018-06-16T23:12:23.220Z,3.50
2018-06-16T23:14:26.800Z,3.93
2018-06-16T23:16:30.294Z,2.90
2018-06-16T23:18:33.861Z,3.57
2018-06-16T23:20:37.406Z,3.53
2018-06-16T23:22:40.916Z,3.93
2018-06-16T23:24:44.551Z,3.27
2018-06-16T23:26:48.104Z,3.40
2018-06-16T23:28:51.650Z,3.93
2018-06-16T23:30:55.170Z,3.57
2018-06-16T23:32:58.745Z,3.23
2018-06-16T23:35:02.295Z,3.10
2018-06-16T23:37:05.955Z,3.57
2018-06-16T23:39:11.834Z,3.00
2018-06-16T23:41:15.351Z,3.30
2018-06-16T23:43:18.836Z,3.07
2018-06-16T23:45:22.281Z,2.80
2018-06-16T23:47:25.839Z,2.80
2018-06-16T23:49:29.327Z,3.20
2018-06-16T23:51:32.880Z,3.20
2018-06-16T23:53:36.414Z,3.20
2018-06-16T23:55:39.971Z,3.23
2018-06-16T23:57:43.508Z,3.33
2018-06-16T23:59:46.996Z,2.90
